UAL965 CYXE-CYYC
Flight info
| Callsign | UAL965 |
|---|---|
| Flight time | N/A |
| Altitude | 38000 |
| Route | OVATA DCT BORIX DCT BIRKO BIRKO6 |
| Aircraft | B738/M-SDE2E3FGHIRWXY/LB1 |
Departure
| Time | 2026-04-25 01:19 |
|---|---|
| Airport | Saskatoon John G. Diefenbaker International Airport (CYXE) |
Arrival
| Time | N/A |
|---|---|
| Airport | Calgary International Airport (CYYC) |
| Time | Latitude | Longitude | Altitude | Speed | Heading |
|---|---|---|---|---|---|
| 2026-04-25 00:26 | 52.17005 | -106.69328 | 1648 ft | 0 kts | 133° |
| 2026-04-25 01:07 | 52.17010 | -106.69336 | 1648 ft | 4 kts | 131° |
| 2026-04-25 01:07 | 52.17026 | -106.69371 | 1648 ft | 4 kts | 115° |
| 2026-04-25 01:07 | 52.17032 | -106.69410 | 1647 ft | 4 kts | 74° |
| 2026-04-25 01:08 | 52.17026 | -106.69429 | 1647 ft | 0 kts | 43° |
| 2026-04-25 01:13 | 52.17038 | -106.69412 | 1647 ft | 6 kts | 43° |
| 2026-04-25 01:13 | 52.17077 | -106.69349 | 1647 ft | 8 kts | 52° |
| 2026-04-25 01:13 | 52.17104 | -106.69270 | 1647 ft | 8 kts | 66° |
| 2026-04-25 01:14 | 52.17131 | -106.69194 | 1647 ft | 8 kts | 47° |
| 2026-04-25 01:14 | 52.17167 | -106.69132 | 1647 ft | 7 kts | 46° |
| 2026-04-25 01:14 | 52.17191 | -106.69059 | 1647 ft | 7 kts | 77° |
| 2026-04-25 01:14 | 52.17189 | -106.68979 | 1647 ft | 7 kts | 98° |
| 2026-04-25 01:15 | 52.17181 | -106.68902 | 1648 ft | 7 kts | 100° |
| 2026-04-25 01:15 | 52.17172 | -106.68826 | 1648 ft | 7 kts | 101° |
| 2026-04-25 01:15 | 52.17161 | -106.68731 | 1648 ft | 11 kts | 101° |
| 2026-04-25 01:15 | 52.17146 | -106.68614 | 1648 ft | 10 kts | 101° |
| 2026-04-25 01:16 | 52.17132 | -106.68500 | 1649 ft | 10 kts | 101° |
| 2026-04-25 01:16 | 52.17119 | -106.68387 | 1648 ft | 11 kts | 99° |
| 2026-04-25 01:16 | 52.17145 | -106.68288 | 1646 ft | 11 kts | 18° |
| 2026-04-25 01:16 | 52.17217 | -106.68260 | 1646 ft | 11 kts | 13° |
| 2026-04-25 01:17 | 52.17288 | -106.68234 | 1644 ft | 10 kts | 10° |
| 2026-04-25 01:17 | 52.17361 | -106.68215 | 1641 ft | 11 kts | 2° |
| 2026-04-25 01:17 | 52.17424 | -106.68277 | 1640 ft | 11 kts | 297° |
| 2026-04-25 01:17 | 52.17435 | -106.68338 | 1641 ft | 0 kts | 281° |
| 2026-04-25 01:18 | 52.17453 | -106.68483 | 1642 ft | 52 kts | 281° |
| 2026-04-25 01:18 | 52.17585 | -106.69582 | 1660 ft | 142 kts | 282° |
| 2026-04-25 01:18 | 52.17830 | -106.71447 | 2168 ft | 180 kts | 283° |
| 2026-04-25 01:19 | 52.18070 | -106.73499 | 3363 ft | 179 kts | 280° |
| 2026-04-25 01:19 | 52.18306 | -106.75579 | 4213 ft | 206 kts | 285° |
| 2026-04-25 01:19 | 52.18613 | -106.78020 | 4673 ft | 225 kts | 283° |
| 2026-04-25 01:19 | 52.18926 | -106.80675 | 5028 ft | 250 kts | 283° |
| 2026-04-25 01:20 | 52.19266 | -106.83526 | 5872 ft | 257 kts | 284° |
| 2026-04-25 01:20 | 52.19618 | -106.86392 | 6839 ft | 258 kts | 284° |
| 2026-04-25 01:20 | 52.19927 | -106.89325 | 7647 ft | 267 kts | 282° |
| 2026-04-25 01:20 | 52.20273 | -106.92304 | 8513 ft | 271 kts | 284° |
| 2026-04-25 01:21 | 52.20613 | -106.95345 | 9355 ft | 274 kts | 284° |
| 2026-04-25 01:21 | 52.20985 | -106.98439 | 10111 ft | 283 kts | 284° |
| 2026-04-25 01:21 | 52.21152 | -107.01724 | 10598 ft | 307 kts | 268° |
| 2026-04-25 01:21 | 52.20790 | -107.05276 | 11017 ft | 324 kts | 261° |
| 2026-04-25 01:22 | 52.20349 | -107.08867 | 11789 ft | 331 kts | 261° |
| 2026-04-25 01:22 | 52.19889 | -107.12577 | 12610 ft | 335 kts | 261° |
| 2026-04-25 01:22 | 52.19439 | -107.16317 | 13407 ft | 338 kts | 261° |
| 2026-04-25 01:22 | 52.18995 | -107.20109 | 14211 ft | 341 kts | 262° |
| 2026-04-25 01:23 | 52.18559 | -107.23939 | 15011 ft | 344 kts | 263° |
| 2026-04-25 01:23 | 52.18127 | -107.27791 | 15795 ft | 347 kts | 263° |
| 2026-04-25 01:23 | 52.17695 | -107.31684 | 16542 ft | 350 kts | 264° |
| 2026-04-25 01:23 | 52.17262 | -107.35601 | 17285 ft | 352 kts | 264° |
| 2026-04-25 01:24 | 52.16827 | -107.39538 | 18015 ft | 355 kts | 264° |
| 2026-04-25 01:24 | 52.16388 | -107.43509 | 18746 ft | 357 kts | 265° |
| 2026-04-25 01:24 | 52.15951 | -107.47456 | 19422 ft | 360 kts | 265° |
| 2026-04-25 01:24 | 52.15498 | -107.51543 | 20070 ft | 364 kts | 265° |
| 2026-04-25 01:25 | 52.15049 | -107.55576 | 20705 ft | 367 kts | 265° |
| 2026-04-25 01:25 | 52.14590 | -107.59684 | 21326 ft | 370 kts | 265° |
| 2026-04-25 01:25 | 52.14125 | -107.63821 | 21939 ft | 373 kts | 266° |
| 2026-04-25 01:25 | 52.13655 | -107.67995 | 22519 ft | 376 kts | 266° |
| 2026-04-25 01:26 | 52.13180 | -107.72198 | 23088 ft | 379 kts | 266° |
| 2026-04-25 01:26 | 52.12700 | -107.76435 | 23642 ft | 381 kts | 266° |
| 2026-04-25 01:26 | 52.12216 | -107.80693 | 24163 ft | 385 kts | 266° |
| 2026-04-25 01:26 | 52.11725 | -107.84997 | 24671 ft | 388 kts | 266° |
| 2026-04-25 01:27 | 52.11230 | -107.89331 | 25141 ft | 392 kts | 266° |
| 2026-04-25 01:27 | 52.10726 | -107.93728 | 25554 ft | 397 kts | 265° |
| 2026-04-25 01:27 | 52.10222 | -107.98107 | 25978 ft | 401 kts | 265° |
| 2026-04-25 01:28 | 52.09268 | -108.07113 | 26810 ft | 407 kts | 266° |
| 2026-04-25 01:28 | 52.08841 | -108.11679 | 27181 ft | 412 kts | 266° |
| 2026-04-25 01:28 | 52.08415 | -108.16298 | 27562 ft | 415 kts | 266° |
| 2026-04-25 01:28 | 52.07981 | -108.20968 | 27922 ft | 419 kts | 266° |
| 2026-04-25 01:29 | 52.07534 | -108.25686 | 28285 ft | 423 kts | 266° |
| 2026-04-25 01:29 | 52.07080 | -108.30428 | 28653 ft | 426 kts | 265° |
| 2026-04-25 01:29 | 52.06616 | -108.35211 | 29007 ft | 430 kts | 265° |
| 2026-04-25 01:29 | 52.06146 | -108.40021 | 29334 ft | 433 kts | 265° |
| 2026-04-25 01:30 | 52.05673 | -108.44819 | 29637 ft | 437 kts | 265° |
| 2026-04-25 01:30 | 52.05189 | -108.49717 | 29964 ft | 441 kts | 265° |
| 2026-04-25 01:30 | 52.04699 | -108.54650 | 30288 ft | 443 kts | 264° |
| 2026-04-25 01:30 | 52.04204 | -108.59603 | 30655 ft | 445 kts | 264° |
| 2026-04-25 01:31 | 52.03706 | -108.64567 | 31080 ft | 445 kts | 264° |
| 2026-04-25 01:31 | 52.03207 | -108.69522 | 31516 ft | 444 kts | 264° |
| 2026-04-25 01:31 | 52.02707 | -108.74459 | 31882 ft | 445 kts | 264° |
| 2026-04-25 01:31 | 52.02203 | -108.79434 | 32223 ft | 446 kts | 264° |
| 2026-04-25 01:32 | 52.01696 | -108.84414 | 32609 ft | 446 kts | 264° |
| 2026-04-25 01:32 | 52.01188 | -108.89382 | 33019 ft | 445 kts | 263° |
| 2026-04-25 01:32 | 52.00678 | -108.94351 | 33377 ft | 446 kts | 263° |
| 2026-04-25 01:32 | 52.00166 | -108.99315 | 33703 ft | 447 kts | 263° |
| 2026-04-25 01:33 | 51.99650 | -109.04293 | 34068 ft | 447 kts | 263° |
| 2026-04-25 01:33 | 51.99135 | -109.09232 | 34618 ft | 440 kts | 263° |
| 2026-04-25 01:33 | 51.98624 | -109.14103 | 35226 ft | 434 kts | 263° |
| 2026-04-25 01:33 | 51.98117 | -109.18931 | 35429 ft | 437 kts | 263° |
| 2026-04-25 01:34 | 51.97602 | -109.23838 | 35536 ft | 443 kts | 263° |
| 2026-04-25 01:34 | 51.97084 | -109.28761 | 35801 ft | 443 kts | 263° |
| 2026-04-25 01:34 | 51.96025 | -109.38697 | 35867 ft | 448 kts | 263° |
| 2026-04-25 01:35 | 51.94966 | -109.48526 | 35843 ft | 441 kts | 263° |
| 2026-04-25 01:35 | 51.93907 | -109.58300 | 35864 ft | 440 kts | 263° |
| 2026-04-25 01:36 | 51.92844 | -109.68074 | 35857 ft | 441 kts | 262° |
| 2026-04-25 01:36 | 51.91764 | -109.77882 | 35866 ft | 442 kts | 263° |
| 2026-04-25 01:37 | 51.90678 | -109.87678 | 35866 ft | 442 kts | 262° |
| 2026-04-25 01:37 | 51.89590 | -109.97427 | 35876 ft | 443 kts | 263° |
| 2026-04-25 01:38 | 51.88482 | -110.07230 | 35862 ft | 443 kts | 262° |
| 2026-04-25 01:38 | 51.87361 | -110.17056 | 35882 ft | 444 kts | 262° |
| 2026-04-25 01:39 | 51.86232 | -110.26891 | 35892 ft | 444 kts | 262° |
| 2026-04-25 01:39 | 51.85094 | -110.36708 | 35899 ft | 444 kts | 262° |
| 2026-04-25 01:40 | 51.83947 | -110.46523 | 35897 ft | 444 kts | 262° |
| 2026-04-25 01:40 | 51.82796 | -110.56330 | 35904 ft | 443 kts | 262° |
| 2026-04-25 01:41 | 51.81647 | -110.66059 | 35899 ft | 442 kts | 262° |
| 2026-04-25 01:41 | 51.80486 | -110.75777 | 35915 ft | 440 kts | 262° |
| 2026-04-25 01:42 | 51.79319 | -110.85483 | 35916 ft | 439 kts | 262° |
| 2026-04-25 01:42 | 51.78144 | -110.95185 | 35675 ft | 440 kts | 262° |
| 2026-04-25 01:43 | 51.77558 | -111.00002 | 35400 ft | 434 kts | 262° |
| 2026-04-25 01:43 | 51.76976 | -111.04761 | 35053 ft | 429 kts | 262° |
| 2026-04-25 01:43 | 51.76400 | -111.09453 | 34680 ft | 425 kts | 262° |
| 2026-04-25 01:43 | 51.75834 | -111.14053 | 34295 ft | 421 kts | 262° |
| 2026-04-25 01:44 | 51.75263 | -111.18675 | 33917 ft | 418 kts | 262° |
| 2026-04-25 01:44 | 51.74695 | -111.23251 | 33540 ft | 415 kts | 262° |
| 2026-04-25 01:44 | 51.74130 | -111.27802 | 33150 ft | 411 kts | 263° |
| 2026-04-25 01:44 | 51.73568 | -111.32316 | 32763 ft | 409 kts | 263° |
| 2026-04-25 01:45 | 51.73009 | -111.36788 | 32385 ft | 406 kts | 263° |
| 2026-04-25 01:45 | 51.72450 | -111.41245 | 32008 ft | 403 kts | 263° |
| 2026-04-25 01:45 | 51.71894 | -111.45661 | 31640 ft | 400 kts | 263° |
| 2026-04-25 01:45 | 51.71343 | -111.50006 | 31529 ft | 389 kts | 264° |
| 2026-04-25 01:46 | 51.70806 | -111.54210 | 31505 ft | 377 kts | 264° |
| 2026-04-25 01:46 | 51.70284 | -111.58281 | 31498 ft | 365 kts | 264° |